createdAt,value
2024-05-09T00:00:58.281Z,13.43
2024-05-09T00:06:03.048Z,13.52
2024-05-09T00:11:08.035Z,13.63
2024-05-09T00:16:15.178Z,13.51
2024-05-09T00:21:20.113Z,13.10
2024-05-09T00:26:24.587Z,13.04
2024-05-09T00:31:31.673Z,13.26
2024-05-09T00:36:36.163Z,12.88
2024-05-09T00:41:40.608Z,13.42
2024-05-09T00:46:48.045Z,13.26
2024-05-09T00:51:53.796Z,13.12
2024-05-09T00:56:58.974Z,13.06
2024-05-09T01:02:06.402Z,12.95
2024-05-09T01:07:11.122Z,12.63
2024-05-09T01:12:16.148Z,12.69
2024-05-09T01:17:23.571Z,12.36
2024-05-09T01:22:33.078Z,12.67
2024-05-09T01:27:40.644Z,12.73
2024-05-09T01:32:48.063Z,12.93
2024-05-09T01:37:52.625Z,12.50
2024-05-09T01:42:59.742Z,12.66
2024-05-09T01:48:04.935Z,12.62
2024-05-09T01:53:10.575Z,12.87
2024-05-09T01:58:18.655Z,12.85
2024-05-09T02:03:23.959Z,12.62
2024-05-09T02:08:28.755Z,12.82
2024-05-09T02:13:38.914Z,12.80
2024-05-09T02:18:43.877Z,12.19
2024-05-09T02:23:48.386Z,12.46
2024-05-09T02:28:55.798Z,12.51
2024-05-09T02:34:03.016Z,12.29
2024-05-09T02:39:08.174Z,12.47
2024-05-09T02:44:15.252Z,12.49
2024-05-09T02:49:19.977Z,12.28
2024-05-09T02:54:24.499Z,12.48
2024-05-09T02:59:31.574Z,12.54
2024-05-09T03:04:36.340Z,12.55
2024-05-09T03:09:40.983Z,11.86
2024-05-09T03:14:48.024Z,12.47
2024-05-09T03:19:52.746Z,12.49
2024-05-09T03:24:57.219Z,12.09
2024-05-09T03:30:07.330Z,12.23
2024-05-09T03:35:12.978Z,12.24
2024-05-09T03:40:26.127Z,12.20
2024-05-09T03:45:35.210Z,12.24
2024-05-09T03:50:40.626Z,11.87
2024-05-09T03:55:48.013Z,11.99
2024-05-09T04:00:55.226Z,11.92
2024-05-09T04:06:00.051Z,11.83
2024-05-09T04:11:04.716Z,12.22
2024-05-09T04:16:13.820Z,12.23
2024-05-09T04:21:18.486Z,11.44
2024-05-09T04:26:23.124Z,12.05
2024-05-09T04:31:38.354Z,11.86
2024-05-09T04:36:44.468Z,12.28
2024-05-09T04:41:49.132Z,12.09
2024-05-09T04:46:56.227Z,12.22
2024-05-09T04:52:01.027Z,11.86
2024-05-09T04:57:05.983Z,12.50
2024-05-09T05:02:13.367Z,12.10
2024-05-09T05:07:23.225Z,12.39
2024-05-09T05:12:44.843Z,12.07
2024-05-09T05:17:52.211Z,12.56
2024-05-09T05:22:56.901Z,12.55
2024-05-09T05:28:01.746Z,12.41
2024-05-09T05:33:12.871Z,12.90
2024-05-09T05:38:23.733Z,12.74
2024-05-09T05:43:32.011Z,12.80
2024-05-09T05:48:43.101Z,13.13
2024-05-09T05:53:50.887Z,12.86
2024-05-09T05:58:55.410Z,13.28
2024-05-09T06:04:06.373Z,13.38
2024-05-09T06:09:11.358Z,13.51
2024-05-09T06:14:18.264Z,13.69
2024-05-09T06:19:27.345Z,13.72
2024-05-09T06:24:31.995Z,13.85
2024-05-09T06:29:44.601Z,13.86
2024-05-09T06:34:57.633Z,14.14
2024-05-09T06:40:07.215Z,14.24
2024-05-09T06:45:15.682Z,14.13
2024-05-09T06:50:28.194Z,13.78
2024-05-09T06:55:36.675Z,14.30
2024-05-09T07:00:42.212Z,14.12
2024-05-09T07:05:50.228Z,14.46
2024-05-09T07:10:54.881Z,14.40
2024-05-09T07:16:02.750Z,14.67
2024-05-09T07:21:12.987Z,14.80
2024-05-09T07:26:17.800Z,14.68
2024-05-09T07:31:23.431Z,15.06
2024-05-09T07:36:32.810Z,14.56
2024-05-09T07:41:37.333Z,15.17
2024-05-09T07:47:47.845Z,15.38
2024-05-09T07:53:29.209Z,15.38
2024-05-09T07:57:39.886Z,15.78
2024-05-09T08:02:45.765Z,15.80
2024-05-09T08:07:52.984Z,15.43
2024-05-09T08:12:59.259Z,15.97
2024-05-09T08:18:04.514Z,16.08
2024-05-09T08:23:13.530Z,15.77
2024-05-09T08:28:22.347Z,16.01
2024-05-09T08:33:27.097Z,16.41
2024-05-09T08:38:34.428Z,16.50
2024-05-09T08:43:41.556Z,16.55
2024-05-09T08:48:50.783Z,16.42
2024-05-09T08:53:58.403Z,16.81
2024-05-09T08:59:04.736Z,17.01
2024-05-09T09:04:12.825Z,16.97
2024-05-09T09:09:20.423Z,16.90
2024-05-09T09:14:24.853Z,17.21
2024-05-09T09:19:29.459Z,17.23
2024-05-09T09:24:37.351Z,17.02
2024-05-09T09:29:51.077Z,17.22
2024-05-09T09:34:56.829Z,17.55
2024-05-09T09:40:07.118Z,17.71
2024-05-09T09:45:12.967Z,17.71
2024-05-09T09:50:24.043Z,17.68
2024-05-09T09:55:40.316Z,17.94
2024-05-09T10:00:45.498Z,17.56
2024-05-09T10:05:51.595Z,18.13
2024-05-09T10:10:58.921Z,18.24
2024-05-09T10:16:11.825Z,18.30
2024-05-09T10:21:20.782Z,18.36
2024-05-09T10:26:35.637Z,18.28
2024-05-09T10:31:41.275Z,18.40
2024-05-09T10:36:46.444Z,18.49
2024-05-09T10:41:53.987Z,18.18
2024-05-09T10:46:58.720Z,18.74
2024-05-09T10:52:06.968Z,18.52
2024-05-09T10:57:14.251Z,18.80
2024-05-09T11:02:20.284Z,18.86
2024-05-09T11:07:25.863Z,19.30
2024-05-09T11:12:33.166Z,19.47
2024-05-09T11:17:39.944Z,19.39
2024-05-09T11:22:44.693Z,19.56
2024-05-09T11:27:51.898Z,19.36
2024-05-09T11:32:58.189Z,19.44
2024-05-09T11:38:02.789Z,19.74
2024-05-09T11:43:10.843Z,19.87
2024-05-09T11:48:16.378Z,19.97
2024-05-09T11:53:21.007Z,19.50
2024-05-09T11:58:34.138Z,19.74
2024-05-09T12:03:39.458Z,20.58
2024-05-09T12:08:46.806Z,20.74
2024-05-09T12:13:53.857Z,21.30
2024-05-09T12:18:58.613Z,21.58
2024-05-09T12:24:03.091Z,21.56
2024-05-09T12:29:10.525Z,21.39
2024-05-09T12:34:16.446Z,21.08
2024-05-09T12:39:21.133Z,21.10
2024-05-09T12:44:28.556Z,20.80
2024-05-09T12:49:35.675Z,21.13
2024-05-09T12:54:40.452Z,20.84
2024-05-09T12:59:47.639Z,20.91
2024-05-09T13:04:52.188Z,20.56
2024-05-09T13:09:57.100Z,20.71
2024-05-09T13:15:04.235Z,21.22
2024-05-09T13:20:18.958Z,21.72
2024-05-09T13:25:40.067Z,22.04
2024-05-09T13:30:47.293Z,22.25
2024-05-09T13:35:51.762Z,22.25
2024-05-09T13:40:59.436Z,22.86
2024-05-09T13:46:06.904Z,23.27
2024-05-09T13:51:11.405Z,23.46
2024-05-09T13:56:16.096Z,23.88
2024-05-09T14:01:24.018Z,23.59
2024-05-09T14:06:29.109Z,24.09
2024-05-09T14:11:33.933Z,24.30
2024-05-09T14:16:42.679Z,23.98
2024-05-09T14:21:50.074Z,23.90
2024-05-09T14:26:58.221Z,23.24
2024-05-09T14:32:05.428Z,23.44
2024-05-09T14:37:10.098Z,23.04
2024-05-09T14:42:18.133Z,22.60
2024-05-09T14:47:25.807Z,22.40
2024-05-09T14:52:30.510Z,22.04
2024-05-09T14:57:39.197Z,22.22
2024-05-09T15:02:50.018Z,21.90
2024-05-09T15:07:59.656Z,22.06
2024-05-09T15:13:04.922Z,21.97
2024-05-09T15:18:15.974Z,21.90
2024-05-09T15:23:21.255Z,21.75
2024-05-09T15:28:26.017Z,21.34
2024-05-09T15:33:40.911Z,21.23
2024-05-09T15:38:46.060Z,21.53
2024-05-09T15:43:53.516Z,21.22
2024-05-09T15:49:05.237Z,21.35
2024-05-09T15:54:09.992Z,21.29
2024-05-09T15:59:14.558Z,21.12
2024-05-09T16:04:22.260Z,21.05
2024-05-09T16:09:26.936Z,21.26
2024-05-09T16:14:34.500Z,20.62
2024-05-09T16:19:45.000Z,21.31
2024-05-09T16:24:49.743Z,21.21
2024-05-09T16:29:55.939Z,20.95
2024-05-09T16:35:03.228Z,20.56
2024-05-09T16:40:21.411Z,20.75
2024-05-09T16:45:30.878Z,20.37
2024-05-09T16:50:38.952Z,20.77
2024-05-09T16:55:43.645Z,20.22
2024-05-09T17:00:48.579Z,20.60
2024-05-09T17:05:59.258Z,20.51
2024-05-09T17:11:04.477Z,20.48
2024-05-09T17:16:11.198Z,20.30
2024-05-09T17:21:24.057Z,20.26
2024-05-09T17:26:33.379Z,19.98
2024-05-09T17:31:39.597Z,20.01
2024-05-09T17:36:47.133Z,19.50
2024-05-09T17:41:52.966Z,19.40
2024-05-09T17:46:59.964Z,19.55
2024-05-09T17:52:11.548Z,19.44
2024-05-09T17:57:22.139Z,16.77
2024-05-09T18:02:44.524Z,18.19
2024-05-09T18:14:38.421Z,19.05
2024-05-09T18:19:44.714Z,18.99
2024-05-09T18:25:08.775Z,18.37
2024-05-09T18:30:27.451Z,18.35
2024-05-09T18:35:48.175Z,17.63
2024-05-09T18:40:53.017Z,18.60
2024-05-09T18:46:02.363Z,18.53
2024-05-09T18:51:10.680Z,18.21
2024-05-09T18:56:15.374Z,18.23
2024-05-09T19:01:24.014Z,16.97
2024-05-09T19:06:29.189Z,17.70
2024-05-09T19:11:37.317Z,15.75
2024-05-09T19:16:50.844Z,16.99
2024-05-09T19:21:57.216Z,17.51
2024-05-09T19:27:01.847Z,17.37
2024-05-09T19:32:09.746Z,16.85
2024-05-09T19:37:14.411Z,17.10
2024-05-09T19:42:19.323Z,17.30
2024-05-09T19:47:26.665Z,17.36
2024-05-09T19:52:31.444Z,17.06
2024-05-09T19:57:42.663Z,16.46
2024-05-09T20:02:50.149Z,16.95
2024-05-09T20:07:57.749Z,16.86
2024-05-09T20:13:02.543Z,16.02
2024-05-09T20:18:13.294Z,16.66
2024-05-09T20:23:17.838Z,16.33
2024-05-09T20:28:23.686Z,16.17
2024-05-09T20:33:31.904Z,16.22
2024-05-09T20:38:38.236Z,15.74
2024-05-09T20:43:42.773Z,15.86
2024-05-09T20:48:50.618Z,15.98
2024-05-09T20:53:56.118Z,15.77
2024-05-09T20:59:00.614Z,15.83
2024-05-09T21:04:08.097Z,15.56
2024-05-09T21:09:12.755Z,16.37
2024-05-09T21:14:17.642Z,16.23
2024-05-09T21:19:24.819Z,16.11
2024-05-09T21:24:29.387Z,15.96
2024-05-09T21:29:34.023Z,16.28
2024-05-09T21:35:02.911Z,15.84
2024-05-09T21:40:17.028Z,16.09
2024-05-09T21:45:30.892Z,15.60
2024-05-09T21:50:41.149Z,15.29
2024-05-09T21:55:47.332Z,15.44
2024-05-09T22:00:52.424Z,15.45
2024-05-09T22:06:07.309Z,14.91
2024-05-09T22:11:12.238Z,15.51
2024-05-09T22:16:19.471Z,15.70
2024-05-09T22:21:26.526Z,15.48
2024-05-09T22:26:30.977Z,15.29
2024-05-09T22:31:35.453Z,14.49
2024-05-09T22:36:42.603Z,14.53
2024-05-09T22:41:47.176Z,15.06
2024-05-09T22:46:51.689Z,15.48
2024-05-09T22:52:01.219Z,14.72
2024-05-09T22:57:05.944Z,14.45
2024-05-09T23:02:10.539Z,14.43
2024-05-09T23:07:18.004Z,15.04
2024-05-09T23:12:22.599Z,14.29
2024-05-09T23:17:27.127Z,13.43
2024-05-09T23:22:34.335Z,14.93
2024-05-09T23:27:39.086Z,14.98
2024-05-09T23:32:46.427Z,15.06
2024-05-09T23:37:53.518Z,14.55
2024-05-09T23:42:58.012Z,14.85
2024-05-09T23:48:02.884Z,14.44
2024-05-09T23:53:11.194Z,14.89
2024-05-09T23:58:16.260Z,14.99
